createdAt,value
2018-01-01T00:01:01.234Z,10.30
2018-01-01T00:03:28.960Z,10.20
2018-01-01T00:05:57.848Z,10.00
2018-01-01T00:08:25.629Z,10.00
2018-01-01T00:10:53.597Z,9.90
2018-01-01T00:13:21.371Z,9.80
2018-01-01T00:15:50.131Z,9.50
2018-01-01T00:18:18.772Z,9.10
2018-01-01T00:20:54.528Z,9.00
2018-01-01T00:23:25.183Z,8.80
2018-01-01T00:25:54.166Z,8.70
2018-01-01T00:28:24.965Z,8.40
2018-01-01T00:30:54.365Z,8.40
2018-01-01T00:33:25.697Z,8.30
2018-01-01T00:35:55.844Z,8.20
2018-01-01T00:38:23.665Z,8.00
2018-01-01T00:40:51.298Z,7.90
2018-01-01T00:43:20.037Z,7.70
2018-01-01T00:45:47.702Z,7.70
2018-01-01T00:48:17.342Z,7.60
2018-01-01T00:50:44.924Z,7.50
2018-01-01T00:53:13.595Z,7.30
2018-01-01T00:55:41.408Z,7.20
2018-01-01T00:58:09.030Z,7.20
2018-01-01T01:00:37.512Z,7.10
2018-01-01T01:03:05.044Z,7.10
2018-01-01T01:05:32.648Z,7.10
2018-01-01T01:08:00.391Z,7.10
2018-01-01T01:10:28.201Z,7.00
2018-01-01T01:12:55.752Z,7.00
2018-01-01T01:15:23.373Z,7.10
2018-01-01T01:17:51.191Z,7.10
2018-01-01T01:20:19.808Z,7.10
2018-01-01T01:22:47.712Z,7.20
2018-01-01T01:25:15.373Z,7.30
2018-01-01T01:27:43.146Z,7.30
2018-01-01T01:30:10.731Z,7.40
2018-01-01T01:32:38.340Z,7.40
2018-01-01T01:35:08.907Z,7.50
2018-01-01T01:37:36.716Z,7.50
2018-01-01T01:40:05.339Z,7.40
2018-01-01T01:42:32.951Z,7.40
2018-01-01T01:45:00.638Z,7.40
2018-01-01T01:47:28.233Z,7.30
2018-01-01T01:49:55.886Z,7.30
2018-01-01T01:52:23.875Z,7.20
2018-01-01T01:54:51.495Z,7.20
2018-01-01T01:57:19.017Z,7.10
2018-01-01T01:59:46.628Z,7.10
2018-01-01T02:02:14.173Z,7.10
2018-01-01T02:04:43.615Z,7.00
2018-01-01T02:07:11.955Z,7.10
2018-01-01T02:09:42.552Z,7.10
2018-01-01T02:12:12.372Z,7.10
2018-01-01T02:14:40.001Z,7.10
2018-01-01T02:17:07.620Z,7.10
2018-01-01T02:19:35.249Z,7.10
2018-01-01T02:22:02.996Z,7.20
2018-01-01T02:24:30.635Z,7.20
2018-01-01T02:26:58.452Z,7.20
2018-01-01T02:29:25.999Z,7.20
2018-01-01T02:31:53.603Z,7.20
2018-01-01T02:34:21.981Z,7.30
2018-01-01T02:36:49.651Z,7.30
2018-01-01T02:39:17.274Z,7.30
2018-01-01T02:41:44.885Z,7.30
2018-01-01T02:44:12.447Z,7.30
2018-01-01T02:46:40.217Z,7.30
2018-01-01T02:49:07.825Z,7.30
2018-01-01T02:51:35.470Z,7.30
2018-01-01T02:54:04.132Z,7.40
2018-01-01T02:56:32.221Z,7.40
2018-01-01T02:59:00.657Z,7.50
2018-01-01T03:01:28.406Z,7.50
2018-01-01T03:03:56.373Z,7.50
2018-01-01T03:06:23.963Z,7.50
2018-01-01T03:08:51.703Z,7.60
2018-01-01T03:11:19.367Z,7.60
2018-01-01T03:13:47.124Z,7.70
2018-01-01T03:16:15.580Z,7.70
2018-01-01T03:18:43.878Z,7.80
2018-01-01T03:21:11.433Z,7.70
2018-01-01T03:23:38.970Z,7.80
2018-01-01T03:26:06.514Z,7.80
2018-01-01T03:28:34.035Z,7.80
2018-01-01T03:31:01.776Z,7.80
2018-01-01T03:33:29.523Z,7.90
2018-01-01T03:35:57.307Z,7.80
2018-01-01T03:38:24.947Z,7.80
2018-01-01T03:40:52.538Z,7.80
2018-01-01T03:43:21.130Z,7.90
2018-01-01T03:45:48.704Z,7.90
2018-01-01T03:48:16.231Z,7.80
2018-01-01T03:50:43.855Z,7.90
2018-01-01T03:53:11.431Z,7.90
2018-01-01T03:55:39.269Z,7.90
2018-01-01T03:58:07.900Z,7.90
2018-01-01T04:00:35.474Z,7.80
2018-01-01T04:03:03.242Z,7.80
2018-01-01T04:05:30.912Z,7.80
2018-01-01T04:07:58.535Z,7.80
2018-01-01T04:10:26.380Z,7.80
2018-01-01T04:12:54.750Z,7.70
2018-01-01T04:15:23.141Z,7.60
2018-01-01T04:17:51.635Z,7.60
2018-01-01T04:20:19.412Z,7.60
2018-01-01T04:22:47.138Z,7.50
2018-01-01T04:25:14.885Z,7.50
2018-01-01T04:27:42.696Z,7.50
2018-01-01T04:30:10.280Z,7.60
2018-01-01T04:32:38.127Z,7.60
2018-01-01T04:35:07.534Z,7.70
2018-01-01T04:37:35.107Z,7.70
2018-01-01T04:40:02.711Z,7.80
2018-01-01T04:42:30.291Z,7.80
2018-01-01T04:44:57.997Z,7.80
2018-01-01T04:47:25.564Z,7.90
2018-01-01T04:49:53.235Z,7.90
2018-01-01T04:52:21.092Z,7.90
2018-01-01T04:54:48.705Z,7.90
2018-01-01T04:57:16.506Z,7.90
2018-01-01T04:59:44.387Z,7.90
2018-01-01T05:02:11.910Z,7.90
2018-01-01T05:04:39.716Z,7.90
2018-01-01T05:07:08.116Z,7.90
2018-01-01T05:09:36.113Z,7.90
2018-01-01T05:12:04.502Z,8.00
2018-01-01T05:14:32.287Z,8.00
2018-01-01T05:17:00.061Z,8.00
2018-01-01T05:19:27.644Z,7.90
2018-01-01T05:21:55.257Z,7.90
2018-01-01T05:24:22.833Z,7.90
2018-01-01T05:26:50.435Z,7.70
2018-01-01T05:29:18.030Z,7.60
2018-01-01T05:31:45.648Z,7.50
2018-01-01T05:34:13.555Z,7.50
2018-01-01T05:36:42.152Z,7.40
2018-01-01T05:39:09.737Z,7.40
2018-01-01T05:41:37.358Z,7.40
2018-01-01T05:44:07.201Z,7.20
2018-01-01T05:46:35.929Z,7.20
2018-01-01T05:49:04.563Z,6.80
2018-01-01T05:51:33.042Z,6.70
2018-01-01T05:54:02.636Z,6.70
2018-01-01T05:56:31.307Z,6.60
2018-01-01T05:58:59.388Z,6.60
2018-01-01T06:01:26.979Z,6.70
2018-01-01T06:03:54.613Z,6.70
2018-01-01T06:06:22.482Z,6.80
2018-01-01T06:08:50.221Z,6.90
2018-01-01T06:11:17.768Z,7.00
2018-01-01T06:13:45.609Z,7.00
2018-01-01T06:16:13.406Z,7.00
2018-01-01T06:18:41.233Z,7.00
2018-01-01T06:21:09.159Z,7.00
2018-01-01T06:23:37.231Z,6.90
2018-01-01T06:26:05.789Z,6.90
2018-01-01T06:28:33.393Z,6.90
2018-01-01T06:31:01.069Z,6.90
2018-01-01T06:33:29.106Z,6.90
2018-01-01T06:35:56.737Z,6.90
2018-01-01T06:38:25.244Z,6.90
2018-01-01T06:40:52.923Z,6.90
2018-01-01T06:43:20.719Z,6.90
2018-01-01T06:45:48.746Z,6.90
2018-01-01T06:48:16.406Z,6.90
2018-01-01T06:50:44.439Z,6.90
2018-01-01T06:53:12.875Z,6.90
2018-01-01T06:55:40.878Z,6.90
2018-01-01T06:58:09.613Z,7.00
2018-01-01T07:00:37.352Z,7.00
2018-01-01T07:03:05.076Z,7.10
2018-01-01T07:05:32.697Z,7.10
2018-01-01T07:08:00.505Z,7.20
2018-01-01T07:10:28.255Z,7.20
2018-01-01T07:12:55.912Z,7.20
2018-01-01T07:15:23.558Z,7.20
2018-01-01T07:17:51.218Z,7.10
2018-01-01T07:20:20.064Z,7.00
2018-01-01T07:22:47.869Z,6.90
2018-01-01T07:25:15.440Z,6.90
2018-01-01T07:27:43.198Z,6.80
2018-01-01T07:30:10.743Z,6.80
2018-01-01T07:32:38.452Z,6.80
2018-01-01T07:35:06.927Z,6.80
2018-01-01T07:37:34.534Z,6.70
2018-01-01T07:40:02.314Z,6.70
2018-01-01T07:42:30.078Z,6.70
2018-01-01T07:44:57.831Z,6.70
2018-01-01T07:47:25.956Z,6.70
2018-01-01T07:49:53.907Z,6.70
2018-01-01T07:52:21.693Z,6.70
2018-01-01T07:54:49.434Z,6.70
2018-01-01T07:57:19.220Z,6.70
2018-01-01T07:59:47.881Z,6.80
2018-01-01T08:02:18.247Z,6.90
2018-01-01T08:04:45.997Z,6.90
2018-01-01T08:07:13.722Z,6.90
2018-01-01T08:09:42.077Z,6.90
2018-01-01T08:12:10.554Z,6.90
2018-01-01T08:14:38.339Z,6.90
2018-01-01T08:17:05.939Z,6.90
2018-01-01T08:19:33.852Z,7.00
2018-01-01T08:22:01.462Z,7.10
2018-01-01T08:24:29.433Z,7.20
2018-01-01T08:26:57.012Z,7.10
2018-01-01T08:29:24.791Z,7.20
2018-01-01T08:31:52.600Z,7.30
2018-01-01T08:34:20.546Z,7.40
2018-01-01T08:36:49.185Z,7.40
2018-01-01T08:39:16.760Z,7.50
2018-01-01T08:41:44.498Z,7.50
2018-01-01T08:44:12.163Z,7.50
2018-01-01T08:46:39.844Z,7.50
2018-01-01T08:49:07.585Z,7.50
2018-01-01T08:51:35.132Z,7.70
2018-01-01T08:54:02.666Z,7.80
2018-01-01T08:56:31.289Z,7.90
2018-01-01T08:58:59.031Z,7.80
2018-01-01T09:01:27.838Z,7.80
2018-01-01T09:03:55.629Z,7.70
2018-01-01T09:06:23.233Z,7.80
2018-01-01T09:08:51.836Z,7.90
2018-01-01T09:11:19.768Z,7.90
2018-01-01T09:13:48.356Z,8.00
2018-01-01T09:16:17.030Z,8.00
2018-01-01T09:18:44.847Z,8.00
2018-01-01T09:21:13.486Z,8.10
2018-01-01T09:23:42.435Z,8.20
2018-01-01T09:26:10.231Z,8.10
2018-01-01T09:28:39.969Z,8.10
2018-01-01T09:31:08.172Z,8.10
2018-01-01T09:33:35.729Z,8.10
2018-01-01T09:36:03.619Z,8.20
2018-01-01T09:38:31.464Z,8.20
2018-01-01T09:40:59.491Z,8.40
2018-01-01T09:43:28.261Z,8.50
2018-01-01T09:45:55.912Z,8.50
2018-01-01T09:48:23.667Z,8.50
2018-01-01T09:50:51.574Z,8.50
2018-01-01T09:53:19.659Z,8.50
2018-01-01T09:55:47.406Z,8.50
2018-01-01T09:58:14.987Z,8.60
2018-01-01T10:00:42.831Z,8.50
2018-01-01T10:03:11.256Z,8.70
2018-01-01T10:05:39.325Z,8.70
2018-01-01T10:08:07.422Z,8.90
2018-01-01T10:10:35.778Z,8.80
2018-01-01T10:13:03.556Z,8.60
2018-01-01T10:15:31.230Z,8.60
2018-01-01T10:17:59.296Z,8.60
2018-01-01T10:20:26.959Z,8.70
2018-01-01T10:22:54.661Z,8.70
2018-01-01T10:25:22.369Z,8.50
2018-01-01T10:27:50.022Z,8.50
2018-01-01T10:30:17.886Z,8.50
2018-01-01T10:32:45.491Z,8.40
2018-01-01T10:35:13.413Z,8.30
2018-01-01T10:37:43.259Z,8.40
2018-01-01T10:40:11.911Z,8.40
2018-01-01T10:42:39.449Z,8.30
2018-01-01T10:45:08.270Z,8.20
2018-01-01T10:47:36.329Z,8.20
2018-01-01T10:50:03.980Z,8.30
2018-01-01T10:52:31.845Z,8.30
2018-01-01T10:54:59.428Z,8.40
2018-01-01T10:57:27.183Z,8.50
2018-01-01T10:59:54.941Z,8.50
2018-01-01T11:02:22.619Z,8.70
2018-01-01T11:04:50.348Z,8.60
2018-01-01T11:07:18.406Z,8.60
2018-01-01T11:09:46.948Z,8.50
2018-01-01T11:12:14.610Z,8.50
2018-01-01T11:14:42.228Z,8.50
2018-01-01T11:17:10.168Z,8.40
2018-01-01T11:19:40.513Z,8.10
2018-01-01T11:22:08.907Z,8.30
2018-01-01T11:24:36.503Z,8.30
2018-01-01T11:27:04.499Z,8.30
2018-01-01T11:29:33.228Z,8.50
2018-01-01T11:32:01.625Z,8.50
2018-01-01T11:34:29.253Z,8.50
2018-01-01T11:36:56.867Z,8.40
2018-01-01T11:39:24.674Z,8.60
2018-01-01T11:41:54.219Z,8.80
2018-01-01T11:44:22.029Z,9.10
2018-01-01T11:46:50.424Z,9.40
2018-01-01T11:49:18.574Z,9.40
2018-01-01T11:51:47.103Z,9.20
2018-01-01T11:54:16.866Z,9.20
2018-01-01T11:56:44.478Z,9.30
2018-01-01T11:59:12.863Z,9.50
2018-01-01T12:01:40.542Z,9.50
2018-01-01T12:04:08.597Z,9.60
2018-01-01T12:06:36.328Z,9.60
2018-01-01T12:09:04.162Z,9.60
2018-01-01T12:11:31.749Z,9.80
2018-01-01T12:13:59.372Z,9.90
2018-01-01T12:16:28.150Z,9.80
2018-01-01T12:18:56.039Z,9.90
2018-01-01T12:21:24.485Z,10.10
2018-01-01T12:23:52.104Z,10.10
2018-01-01T12:26:19.736Z,10.10
2018-01-01T12:28:47.553Z,10.40
2018-01-01T12:31:15.131Z,10.20
2018-01-01T12:33:42.884Z,10.20
2018-01-01T12:36:10.622Z,10.40
2018-01-01T12:38:38.399Z,10.60
2018-01-01T12:41:06.061Z,10.60
2018-01-01T12:43:34.095Z,10.60
2018-01-01T12:46:02.614Z,10.20
2018-01-01T12:48:30.251Z,10.20
2018-01-01T12:50:58.638Z,9.60
2018-01-01T12:53:26.315Z,9.60
2018-01-01T12:55:53.924Z,9.90
2018-01-01T12:58:22.379Z,10.10
2018-01-01T13:00:51.040Z,10.10
2018-01-01T13:03:18.695Z,10.20
2018-01-01T13:05:46.437Z,9.90
2018-01-01T13:08:14.264Z,9.70
2018-01-01T13:10:41.928Z,9.90
2018-01-01T13:13:09.611Z,10.00
2018-01-01T13:15:39.118Z,9.60
2018-01-01T13:18:06.734Z,9.60
2018-01-01T13:20:34.826Z,9.60
2018-01-01T13:23:02.746Z,9.80
2018-01-01T13:25:30.358Z,9.50
2018-01-01T13:27:57.924Z,9.40
2018-01-01T13:30:25.742Z,9.60
2018-01-01T13:32:53.300Z,9.50
2018-01-01T13:35:20.900Z,9.60
2018-01-01T13:37:48.726Z,9.80
2018-01-01T13:40:16.304Z,9.70
2018-01-01T13:42:45.065Z,9.60
2018-01-01T13:45:12.764Z,9.80
2018-01-01T13:47:40.730Z,9.90
2018-01-01T13:50:08.490Z,10.20
2018-01-01T13:52:36.219Z,10.40
2018-01-01T13:55:04.103Z,10.40
2018-01-01T13:57:31.895Z,10.50
2018-01-01T14:00:00.414Z,10.50
2018-01-01T14:02:28.914Z,10.50
2018-01-01T14:04:56.969Z,10.50
2018-01-01T14:07:24.868Z,10.30
2018-01-01T14:09:52.499Z,10.10
2018-01-01T14:12:21.817Z,9.90
2018-01-01T14:14:49.589Z,9.90
2018-01-01T14:17:17.356Z,10.00
2018-01-01T14:19:45.037Z,10.10
2018-01-01T14:22:12.802Z,9.90
2018-01-01T14:24:40.522Z,9.70
2018-01-01T14:27:09.176Z,9.60
2018-01-01T14:29:36.783Z,9.60
2018-01-01T14:32:06.397Z,9.40
2018-01-01T14:34:34.154Z,9.40
2018-01-01T14:37:01.964Z,9.20
2018-01-01T14:39:29.575Z,9.30
2018-01-01T14:41:57.184Z,9.30
2018-01-01T14:44:24.744Z,9.30
2018-01-01T14:46:52.466Z,9.40
2018-01-01T14:49:20.213Z,9.20
2018-01-01T14:51:47.859Z,9.40
2018-01-01T14:54:15.434Z,9.50
2018-01-01T14:56:44.029Z,9.30
2018-01-01T14:59:11.662Z,9.30
2018-01-01T15:01:40.967Z,9.30
2018-01-01T15:04:09.401Z,9.20
2018-01-01T15:06:37.035Z,9.20
2018-01-01T15:09:05.069Z,9.20
2018-01-01T15:11:33.390Z,9.10
2018-01-01T15:14:00.920Z,9.10
2018-01-01T15:16:30.504Z,9.10
2018-01-01T15:18:58.072Z,9.10
2018-01-01T15:21:26.578Z,9.10
2018-01-01T15:23:54.197Z,9.10
2018-01-01T15:26:21.830Z,9.00
2018-01-01T15:28:49.692Z,9.00
2018-01-01T15:31:17.541Z,9.00
2018-01-01T15:33:45.189Z,9.00
2018-01-01T15:36:13.027Z,8.80
2018-01-01T15:38:40.834Z,8.70
2018-01-01T15:41:08.785Z,8.70
2018-01-01T15:43:36.411Z,8.60
2018-01-01T15:46:04.054Z,8.60
2018-01-01T15:48:31.839Z,8.60
2018-01-01T15:50:59.756Z,8.60
2018-01-01T15:53:27.521Z,8.60
2018-01-01T15:55:55.458Z,8.50
2018-01-01T15:58:23.259Z,8.30
2018-01-01T16:00:51.225Z,8.10
2018-01-01T16:03:18.942Z,7.80
2018-01-01T16:05:47.607Z,7.60
2018-01-01T16:08:16.456Z,7.60
2018-01-01T16:10:44.266Z,7.50
2018-01-01T16:13:14.463Z,7.50
2018-01-01T16:15:42.412Z,7.40
2018-01-01T16:18:11.203Z,7.20
2018-01-01T16:20:38.835Z,7.20
2018-01-01T16:23:07.594Z,7.30
2018-01-01T16:25:36.161Z,7.30
2018-01-01T16:28:03.947Z,7.30
2018-01-01T16:30:32.678Z,7.30
2018-01-01T16:33:00.450Z,7.30
2018-01-01T16:35:28.195Z,7.30
2018-01-01T16:37:55.795Z,7.40
2018-01-01T16:40:23.411Z,7.30
2018-01-01T16:42:51.029Z,7.40
2018-01-01T16:45:18.964Z,7.30
2018-01-01T16:47:46.599Z,7.40
2018-01-01T16:50:14.468Z,7.40
2018-01-01T16:52:42.101Z,7.40
2018-01-01T16:55:09.878Z,7.40
2018-01-01T16:57:37.588Z,7.30
2018-01-01T17:00:05.479Z,7.40
2018-01-01T17:02:33.260Z,7.50
2018-01-01T17:05:02.216Z,7.50
2018-01-01T17:07:29.966Z,7.50
2018-01-01T17:09:57.736Z,7.60
2018-01-01T17:12:25.491Z,7.70
2018-01-01T17:14:53.312Z,7.70
2018-01-01T17:17:21.125Z,7.70
2018-01-01T17:19:49.033Z,7.70
2018-01-01T17:22:16.802Z,7.60
2018-01-01T17:24:44.491Z,7.60
2018-01-01T17:27:13.171Z,7.60
2018-01-01T17:29:41.506Z,7.60
2018-01-01T17:32:09.120Z,7.60
2018-01-01T17:34:36.837Z,7.70
2018-01-01T17:37:05.808Z,7.60
2018-01-01T17:39:33.484Z,7.60
2018-01-01T17:42:01.231Z,7.60
2018-01-01T17:44:28.875Z,7.60
2018-01-01T17:46:56.493Z,7.60
2018-01-01T17:49:30.739Z,7.60
2018-01-01T17:51:58.435Z,7.70
2018-01-01T17:54:25.997Z,7.80
2018-01-01T17:56:53.662Z,7.80
2018-01-01T17:59:21.536Z,7.90
2018-01-01T18:01:49.269Z,7.80
2018-01-01T18:04:16.926Z,7.90
2018-01-01T18:06:44.592Z,7.90
2018-01-01T18:09:12.171Z,8.00
2018-01-01T18:11:40.207Z,8.00
2018-01-01T18:14:07.788Z,8.10
2018-01-01T18:16:35.580Z,8.10
2018-01-01T18:19:03.304Z,8.10
2018-01-01T18:21:30.840Z,8.10
2018-01-01T18:24:01.201Z,8.10
2018-01-01T18:26:28.783Z,8.10
2018-01-01T18:28:56.569Z,8.20
2018-01-01T18:31:24.127Z,8.20
2018-01-01T18:33:51.685Z,8.20
2018-01-01T18:36:19.341Z,8.10
2018-01-01T18:38:47.187Z,8.20
2018-01-01T18:41:15.023Z,8.20
2018-01-01T18:43:42.630Z,8.40
2018-01-01T18:46:10.216Z,8.40
2018-01-01T18:48:37.926Z,8.40
2018-01-01T18:51:05.655Z,8.40
2018-01-01T18:53:33.435Z,8.40
2018-01-01T18:56:01.197Z,8.40
2018-01-01T18:58:28.798Z,8.40
2018-01-01T19:00:56.621Z,8.30
2018-01-01T19:03:24.204Z,8.20
2018-01-01T19:05:52.017Z,8.20
2018-01-01T19:08:19.587Z,8.20
2018-01-01T19:10:47.305Z,8.20
2018-01-01T19:13:14.835Z,8.20
2018-01-01T19:15:42.698Z,8.20
2018-01-01T19:18:10.316Z,8.20
2018-01-01T19:20:40.181Z,8.20
2018-01-01T19:23:07.875Z,8.20
2018-01-01T19:25:35.712Z,8.20
2018-01-01T19:28:03.370Z,8.20
2018-01-01T19:30:31.175Z,8.20
2018-01-01T19:32:58.897Z,8.20
2018-01-01T19:35:26.535Z,8.20
2018-01-01T19:37:54.431Z,8.20
2018-01-01T19:40:22.206Z,8.20
2018-01-01T19:42:49.754Z,8.10
2018-01-01T19:45:17.510Z,7.90
2018-01-01T19:47:45.186Z,7.90
2018-01-01T19:50:12.821Z,7.80
2018-01-01T19:52:40.530Z,7.90
2018-01-01T19:55:08.168Z,7.80
2018-01-01T19:57:36.065Z,7.70
2018-01-01T20:00:03.904Z,7.70
2018-01-01T20:02:31.554Z,7.70
2018-01-01T20:04:59.889Z,7.70
2018-01-01T20:07:27.825Z,7.70
2018-01-01T20:09:56.126Z,7.70
2018-01-01T20:12:24.714Z,7.60
2018-01-01T20:14:52.527Z,7.60
2018-01-01T20:17:20.774Z,7.70
2018-01-01T20:19:48.463Z,7.70
2018-01-01T20:22:16.045Z,7.80
2018-01-01T20:24:44.029Z,7.80
2018-01-01T20:27:11.668Z,7.70
2018-01-01T20:29:39.377Z,7.60
2018-01-01T20:32:07.707Z,7.60
2018-01-01T20:34:35.493Z,7.60
2018-01-01T20:37:03.234Z,7.60
2018-01-01T20:39:30.752Z,7.70
2018-01-01T20:41:59.270Z,7.60
2018-01-01T20:44:27.388Z,7.60
2018-01-01T20:46:55.861Z,7.60
2018-01-01T20:49:23.391Z,7.60
2018-01-01T20:51:51.451Z,7.60
2018-01-01T20:54:19.054Z,7.60
2018-01-01T20:56:47.717Z,7.70
2018-01-01T20:59:15.407Z,7.60
2018-01-01T21:01:43.716Z,7.60
2018-01-01T21:04:11.463Z,7.60
2018-01-01T21:06:39.271Z,7.70
2018-01-01T21:09:07.114Z,7.70
2018-01-01T21:11:34.981Z,7.70
2018-01-01T21:14:03.052Z,7.70
2018-01-01T21:16:30.607Z,7.80
2018-01-01T21:18:58.127Z,7.80
2018-01-01T21:21:25.845Z,7.70
2018-01-01T21:23:53.751Z,7.70
2018-01-01T21:26:21.783Z,7.70
2018-01-01T21:28:49.378Z,7.80
2018-01-01T21:31:17.297Z,7.80
2018-01-01T21:33:44.844Z,7.60
2018-01-01T21:36:13.541Z,7.50
2018-01-01T21:38:41.142Z,7.40
2018-01-01T21:41:08.716Z,7.20
2018-01-01T21:43:36.502Z,7.10
2018-01-01T21:46:04.155Z,6.70
2018-01-01T21:48:32.571Z,6.30
2018-01-01T21:51:00.143Z,6.30
2018-01-01T21:53:27.939Z,6.30
2018-01-01T21:55:55.866Z,6.20
2018-01-01T21:58:23.685Z,6.10
2018-01-01T22:00:52.039Z,5.80
2018-01-01T22:03:19.824Z,5.80
2018-01-01T22:05:47.631Z,5.80
2018-01-01T22:08:15.600Z,5.80
2018-01-01T22:10:43.256Z,5.80
2018-01-01T22:13:10.915Z,5.80
2018-01-01T22:15:38.544Z,5.80
2018-01-01T22:18:08.039Z,6.00
2018-01-01T22:20:37.696Z,6.00
2018-01-01T22:23:05.371Z,6.00
2018-01-01T22:25:34.215Z,6.00
2018-01-01T22:28:03.073Z,5.90
2018-01-01T22:30:30.951Z,5.90
2018-01-01T22:32:58.715Z,5.80
2018-01-01T22:35:26.478Z,5.80
2018-01-01T22:37:54.196Z,5.90
2018-01-01T22:40:21.815Z,5.80
2018-01-01T22:42:49.983Z,5.80
2018-01-01T22:45:17.775Z,5.80
2018-01-01T22:47:46.092Z,5.80
2018-01-01T22:50:13.835Z,5.90
2018-01-01T22:52:41.596Z,5.90
2018-01-01T22:55:09.427Z,5.90
2018-01-01T22:57:38.427Z,6.00
2018-01-01T23:00:06.783Z,6.00
2018-01-01T23:02:34.358Z,6.10
2018-01-01T23:05:02.962Z,6.10
2018-01-01T23:07:30.554Z,6.00
2018-01-01T23:09:59.100Z,6.10
2018-01-01T23:12:27.751Z,6.00
2018-01-01T23:14:55.513Z,6.00
2018-01-01T23:17:24.389Z,5.90
2018-01-01T23:19:52.209Z,5.90
2018-01-01T23:22:19.909Z,5.90
2018-01-01T23:24:47.512Z,5.90
2018-01-01T23:27:15.877Z,5.90
2018-01-01T23:29:43.722Z,5.90
2018-01-01T23:32:11.318Z,5.90
2018-01-01T23:34:39.097Z,6.00
2018-01-01T23:37:06.863Z,6.00
2018-01-01T23:39:34.680Z,5.90
2018-01-01T23:42:02.402Z,5.90
2018-01-01T23:44:30.138Z,6.00
2018-01-01T23:46:57.724Z,5.90
2018-01-01T23:49:27.244Z,6.00
2018-01-01T23:51:54.831Z,6.00
2018-01-01T23:54:22.579Z,6.00
2018-01-01T23:56:50.160Z,6.00
2018-01-01T23:59:17.895Z,6.00
